Time;durP1;ratioP1;P1;durP2;ratioP2;P2;SDS_P1;SDS_P2;PMS_P1;PMS_P2;Temp;Humidity;BMP_temperature;BMP_pressure;BME280_temperature;BME280_humidity;BME280_pressure;Samples;Min_cycle;Max_cycle;Signal;HPM_P1;HPM_P2
2021/09/28 00:00:09;;;;;;;;;6.00;3.00;;;;;16.03;60.19;102019.66;6245367;22;47164;-89
2021/09/28 00:02:35;;;;;;;;;1.33;1.33;;;;;16.04;60.27;102029.38;6220760;22;45236;-88
2021/09/28 00:05:00;;;;;;;;;3.00;3.00;;;;;16.01;60.32;102024.00;6246205;22;45200;-88
2021/09/28 00:07:26;;;;;;;;;2.00;2.00;;;;;16.01;60.52;102031.97;6249006;22;45199;-88
2021/09/28 00:09:51;;;;;;;;;2.67;2.33;;;;;16.05;60.86;102032.09;6220700;22;47182;-88
2021/09/28 00:12:18;;;;;;;;;2.00;2.00;;;;;16.06;60.09;102043.56;6220720;22;45177;-88
2021/09/28 00:14:43;;;;;;;;;4.00;2.00;;;;;16.04;60.37;102043.53;6222567;22;45423;-89
2021/09/28 00:17:09;;;;;;;;;3.33;1.67;;;;;15.94;60.74;102034.53;6264715;22;44666;-88
2021/09/28 00:19:35;;;;;;;;;2.00;2.00;;;;;16.01;60.81;102047.88;6268031;22;45410;-88
2021/09/28 00:22:01;;;;;;;;;2.00;2.00;;;;;15.91;60.30;102030.91;6272451;22;44649;-89
2021/09/28 00:24:26;;;;;;;;;3.67;2.33;;;;;15.90;60.58;102042.41;6246380;22;44779;-88
2021/09/28 00:26:51;;;;;;;;;3.00;2.00;;;;;15.98;60.25;102046.97;6269629;22;44609;-88
2021/09/28 00:29:17;;;;;;;;;2.00;2.00;;;;;16.03;60.31;102057.66;6246697;22;46892;-88
2021/09/28 00:31:42;;;;;;;;;4.00;2.00;;;;;16.03;60.75;102057.66;6269980;22;44665;-89
2021/09/28 00:34:08;;;;;;;;;2.67;2.67;;;;;15.95;60.60;102057.50;6246847;22;45103;-88
2021/09/28 00:36:33;;;;;;;;;3.00;2.33;;;;;15.98;61.01;102064.63;6232798;22;45140;-88
2021/09/28 00:38:59;;;;;;;;;5.00;1.33;;;;;15.95;60.60;102061.91;6255434;22;45478;-89
2021/09/28 00:41:24;;;;;;;;;3.00;2.67;;;;;15.90;60.58;102055.66;6251725;22;45362;-88
2021/09/28 00:43:54;;;;;;;;;3.67;2.00;;;;;15.97;60.27;102073.44;6252176;22;45154;-88
2021/09/28 00:46:23;;;;;;;;;2.00;2.00;;;;;15.96;60.89;102069.03;6226737;22;45198;-88
2021/09/28 00:48:49;;;;;;;;;2.00;2.00;;;;;15.92;60.49;102064.53;6220314;22;47136;-88
2021/09/28 00:51:16;;;;;;;;;1.67;1.67;;;;;15.85;60.32;102051.19;6245125;22;45119;-88
2021/09/28 00:53:43;;;;;;;;;3.00;3.00;;;;;15.88;60.21;102054.75;6246918;22;45315;-88
2021/09/28 00:56:13;;;;;;;;;2.33;2.00;;;;;15.89;60.61;102059.16;6246670;22;45370;-89
2021/09/28 00:58:40;;;;;;;;;3.33;3.00;;;;;15.93;60.54;102058.34;6218192;22;47296;-88
2021/09/28 01:01:06;;;;;;;;;2.00;2.00;;;;;15.83;60.23;102039.66;6243508;22;45265;-88
2021/09/28 01:03:32;;;;;;;;;2.00;2.00;;;;;15.84;59.99;102046.72;6246536;22;45207;-88
2021/09/28 01:05:58;;;;;;;;;4.00;2.00;;;;;15.76;59.98;102035.09;6246816;22;45185;-88
2021/09/28 01:08:23;;;;;;;;;5.00;3.00;;;;;15.83;60.43;102055.56;6218079;22;47094;-87
2021/09/28 01:10:48;;;;;;;;;7.00;3.00;;;;;15.78;60.96;102043.09;6218308;22;45874;-88
2021/09/28 01:13:14;;;;;;;;;3.00;2.00;;;;;15.74;60.29;102043.03;6245626;22;45241;-90
2021/09/28 01:15:46;;;;;;;;;4.67;2.00;;;;;15.79;60.97;102051.06;6245737;22;45363;-88
2021/09/28 01:18:12;;;;;;;;;3.00;2.00;;;;;15.79;61.47;102048.41;6245813;22;46390;-87
2021/09/28 01:20:37;;;;;;;;;2.00;2.00;;;;;15.80;61.73;102052.84;6246045;22;45185;-88
2021/09/28 01:23:03;;;;;;;;;3.67;2.33;;;;;15.83;62.14;102059.97;6224282;22;45455;-89
2021/09/28 01:25:31;;;;;;;;;3.33;3.33;;;;;15.75;61.36;102038.63;6245900;22;45278;-88
2021/09/28 01:27:56;;;;;;;;;3.67;3.00;;;;;15.70;61.24;102029.69;6218129;22;48039;-88
2021/09/28 01:30:21;;;;;;;;;2.33;2.00;;;;;15.70;62.22;102029.69;6217304;22;46058;-86
2021/09/28 01:32:47;;;;;;;;;3.00;3.00;;;;;15.66;61.79;102038.47;6217971;22;45190;-86
2021/09/28 01:35:12;;;;;;;;;2.67;2.67;;;;;15.75;62.23;102043.94;6219889;22;45265;-88
2021/09/28 01:37:38;;;;;;;;;2.67;2.67;;;;;15.71;61.49;102050.94;6247153;22;45265;-88
2021/09/28 01:40:04;;;;;;;;;3.00;2.00;;;;;15.63;61.74;102034.03;6246915;22;45280;-88
2021/09/28 01:42:29;;;;;;;;;3.33;3.33;;;;;15.66;62.16;102027.84;6226309;22;45146;-87
2021/09/28 01:44:54;;;;;;;;;2.33;2.33;;;;;15.72;61.70;102043.88;6257992;22;45236;-89
2021/09/28 01:47:20;;;;;;;;;3.67;3.00;;;;;15.70;62.28;102045.59;6233914;22;46271;-87
2021/09/28 01:49:45;;;;;;;;;2.33;2.33;;;;;15.57;62.13;102017.97;6259622;22;45141;-88
2021/09/28 01:52:11;;;;;;;;;4.00;3.00;;;;;15.58;61.70;102028.63;6260211;22;45153;-87
2021/09/28 01:54:36;;;;;;;;;3.00;3.00;;;;;15.59;61.94;102030.41;6261553;22;45234;-89
2021/09/28 01:57:03;;;;;;;;;3.33;2.00;;;;;15.61;61.47;102033.09;6224040;22;47080;-89
2021/09/28 01:59:29;;;;;;;;;4.00;2.33;;;;;15.51;61.21;102016.13;6222933;22;45234;-89
2021/09/28 02:01:54;;;;;;;;;3.00;2.67;;;;;15.46;61.83;102013.38;6225245;22;44731;-89
2021/09/28 02:04:20;;;;;;;;;3.00;3.00;;;;;15.45;61.83;102008.97;6264805;22;44793;-88
2021/09/28 02:06:45;;;;;;;;;2.33;2.00;;;;;15.44;61.94;102011.59;6232989;22;47054;-87
2021/09/28 02:09:11;;;;;;;;;3.33;3.33;;;;;15.47;62.59;102011.63;6255657;22;45189;-88
2021/09/28 02:11:37;;;;;;;;;2.67;2.00;;;;;15.43;61.87;102004.50;6221104;22;45300;-89
2021/09/28 02:14:07;;;;;;;;;4.00;3.00;;;;;15.54;61.64;102017.94;6248609;22;45300;-89
2021/09/28 02:16:33;;;;;;;;;2.67;2.67;;;;;15.48;62.54;102009.00;6247325;22;46212;-89
2021/09/28 02:18:58;;;;;;;;;2.67;2.67;;;;;15.52;61.78;102016.16;6248042;22;45394;-89
2021/09/28 02:21:24;;;;;;;;;5.00;2.00;;;;;15.43;62.10;101996.56;6248097;22;45231;-89
2021/09/28 02:23:49;;;;;;;;;4.00;3.67;;;;;15.44;62.29;102001.88;6248262;22;45395;-88
2021/09/28 02:26:15;;;;;;;;;2.00;2.00;;;;;15.48;62.19;102011.66;6221527;22;47436;-88
2021/09/28 02:28:41;;;;;;;;;3.67;2.00;;;;;15.33;62.05;101991.09;6222610;22;45388;-90
2021/09/28 02:31:06;;;;;;;;;3.00;2.00;;;;;15.35;62.25;101992.03;6221988;22;45253;-89
2021/09/28 02:33:32;;;;;;;;;4.33;2.00;;;;;15.39;62.25;102003.56;6259036;22;44703;-88
2021/09/28 02:35:57;;;;;;;;;6.33;3.67;;;;;15.38;61.98;102002.66;6229266;22;46969;-89
2021/09/28 02:38:23;;;;;;;;;3.67;2.00;;;;;15.31;62.13;101979.59;6230092;22;45115;-88
2021/09/28 02:40:48;;;;;;;;;4.00;2.67;;;;;15.43;62.27;102004.50;6233609;22;45158;-89
2021/09/28 02:43:14;;;;;;;;;3.00;3.00;;;;;15.30;61.66;101988.38;6248673;22;45189;-89
2021/09/28 02:45:40;;;;;;;;;2.00;2.00;;;;;15.36;61.96;101996.44;6219700;22;47881;-88
2021/09/28 02:48:06;;;;;;;;;3.00;3.00;;;;;15.40;61.72;101998.28;6219069;22;45311;-89
2021/09/28 02:50:33;;;;;;;;;3.33;2.00;;;;;15.34;61.78;101984.94;6219049;22;45241;-88
2021/09/28 02:53:01;;;;;;;;;2.00;2.00;;;;;15.33;61.50;101984.91;6247522;22;45319;-88
2021/09/28 02:55:26;;;;;;;;;2.33;2.33;;;;;15.34;62.02;101990.22;6219027;22;47301;-88
2021/09/28 02:57:52;;;;;;;;;4.67;3.00;;;;;15.25;61.96;101966.25;6246594;22;45324;-87
2021/09/28 03:00:17;;;;;;;;;3.33;3.00;;;;;15.26;62.33;101975.94;6219722;22;45292;-89
2021/09/28 03:02:43;;;;;;;;;2.00;2.00;;;;;15.31;61.82;101984.00;6247335;22;45347;-88
2021/09/28 03:05:08;;;;;;;;;3.00;3.00;;;;;15.18;62.13;101966.97;6247647;22;45363;-88
2021/09/28 03:07:34;;;;;;;;;4.00;3.00;;;;;15.14;62.44;101968.69;6223019;22;45210;-88
2021/09/28 03:09:59;;;;;;;;;4.33;1.67;;;;;15.23;63.09;101981.22;6252852;22;45194;-88
2021/09/28 03:12:25;;;;;;;;;6.00;3.67;;;;;15.25;62.46;101990.94;6220028;22;45186;-87
2021/09/28 03:14:50;;;;;;;;;3.00;3.00;;;;;15.12;62.68;101968.63;6246913;22;45317;-89
2021/09/28 03:17:15;;;;;;;;;5.00;4.00;;;;;15.15;63.25;101975.75;6247436;22;45177;-88
2021/09/28 03:19:41;;;;;;;;;4.33;4.00;;;;;15.19;62.55;101984.66;6247018;22;45137;-88
2021/09/28 03:22:06;;;;;;;;;4.00;4.00;;;;;15.11;62.56;101969.50;6248145;22;45197;-89
2021/09/28 03:24:32;;;;;;;;;4.00;4.00;;;;;15.14;62.69;101982.78;6247158;22;46193;-88
2021/09/28 03:26:57;;;;;;;;;4.00;4.00;;;;;15.05;62.97;101970.31;6246980;22;45161;-88
2021/09/28 03:29:22;;;;;;;;;3.67;3.67;;;;;15.09;62.99;101981.84;6218758;22;45331;-88
2021/09/28 03:31:48;;;;;;;;;3.00;3.00;;;;;15.09;63.17;101981.84;6219690;22;45316;-88
2021/09/28 03:34:13;;;;;;;;;4.00;4.00;;;;;15.01;62.74;101967.56;6218792;22;47054;-88
2021/09/28 03:36:39;;;;;;;;;4.67;4.00;;;;;15.13;63.29;101980.13;6247002;22;45190;-89
2021/09/28 03:39:04;;;;;;;;;4.67;3.00;;;;;15.09;63.25;101979.19;6219264;22;45309;-88
2021/09/28 03:41:30;;;;;;;;;5.00;3.00;;;;;15.05;63.16;101966.75;6219403;22;45427;-89
2021/09/28 03:43:55;;;;;;;;;5.33;4.00;;;;;15.03;62.93;101968.47;6246653;22;45665;-89
2021/09/28 03:46:21;;;;;;;;;3.00;3.00;;;;;15.05;62.84;101966.75;6218824;22;45361;-88
2021/09/28 03:48:46;;;;;;;;;2.00;2.00;;;;;15.00;63.03;101960.47;6246747;22;45321;-88
2021/09/28 03:51:12;;;;;;;;;4.00;4.00;;;;;15.02;63.06;101959.63;6222021;22;45244;-87
2021/09/28 03:53:38;;;;;;;;;2.33;2.33;;;;;14.95;62.70;101948.91;6226154;22;46550;-89
2021/09/28 03:56:04;;;;;;;;;3.33;3.33;;;;;15.00;62.79;101958.72;6227595;22;45224;-90
2021/09/28 03:58:30;;;;;;;;;2.33;2.33;;;;;14.95;63.16;101954.22;6253913;22;45123;-89
2021/09/28 04:00:55;;;;;;;;;5.00;3.00;;;;;15.00;63.31;101960.47;6223126;22;45175;-87
2021/09/28 04:03:20;;;;;;;;;2.67;2.00;;;;;15.02;63.62;101961.38;6221995;22;46809;-89
2021/09/28 04:05:46;;;;;;;;;4.00;3.00;;;;;14.99;63.65;101966.63;6223271;22;45277;-90
2021/09/28 04:08:11;;;;;;;;;3.00;3.00;;;;;14.98;64.18;101978.06;6220913;22;45368;-90
2021/09/28 04:10:37;;;;;;;;;2.00;2.00;;;;;14.89;63.75;101965.59;6246575;22;45202;-89
2021/09/28 04:13:08;;;;;;;;;4.00;3.00;;;;;14.90;64.24;101973.53;6219269;22;47316;-90
2021/09/28 04:15:43;;;;;;;;;4.33;3.00;;;;;14.85;64.18;101961.09;6249722;22;45145;-89
2021/09/28 04:18:10;;;;;;;;;5.00;4.00;;;;;14.91;64.28;101991.19;6247663;22;45196;-89
2021/09/28 04:20:38;;;;;;;;;3.00;3.00;;;;;14.90;64.50;101984.13;6247476;22;45175;-89
2021/09/28 04:23:04;;;;;;;;;3.67;3.00;;;;;14.86;64.68;101990.25;6220471;22;47130;-88
2021/09/28 04:25:30;;;;;;;;;6.33;6.00;;;;;14.80;64.44;101987.44;6221015;22;45783;-90
2021/09/28 04:27:56;;;;;;;;;5.33;3.67;;;;;14.82;64.88;101989.25;6220835;22;45312;-89
2021/09/28 04:30:22;;;;;;;;;4.67;4.33;;;;;14.66;64.48;101969.50;6248509;22;45245;-89
2021/09/28 04:32:47;;;;;;;;;3.67;3.00;;;;;14.70;64.76;101979.28;6246188;22;48232;-90
2021/09/28 04:35:13;;;;;;;;;3.00;3.00;;;;;14.62;64.49;101962.38;6251444;22;45247;-89
2021/09/28 04:37:38;;;;;;;;;3.00;2.33;;;;;14.66;64.32;101977.44;6253188;22;45114;-89
2021/09/28 04:40:04;;;;;;;;;4.00;3.00;;;;;14.62;64.54;101972.94;6241727;22;45213;-89
2021/09/28 04:42:29;;;;;;;;;6.33;4.00;;;;;14.59;64.00;101971.13;6244906;22;47740;-88
2021/09/28 04:44:55;;;;;;;;;2.67;2.00;;;;;14.61;64.60;101979.13;6258485;22;45177;-89
2021/09/28 04:47:20;;;;;;;;;2.33;2.33;;;;;14.53;64.24;101965.72;6227273;22;45278;-88
2021/09/28 04:49:46;;;;;;;;;2.00;2.00;;;;;14.51;64.44;101963.91;6254085;22;45211;-88
2021/09/28 04:52:11;;;;;;;;;2.00;2.00;;;;;14.50;64.49;101962.13;6222593;22;47024;-88
2021/09/28 04:54:37;;;;;;;;;2.33;2.00;;;;;14.57;64.76;101974.63;6250656;22;45268;-88
2021/09/28 04:57:02;;;;;;;;;2.33;2.33;;;;;14.55;64.40;101982.50;6224295;22;45258;-88
2021/09/28 04:59:28;;;;;;;;;4.00;3.00;;;;;14.49;64.15;101976.22;6223978;22;45465;-89
2021/09/28 05:01:53;;;;;;;;;3.00;1.67;;;;;14.50;64.61;101983.28;6223051;22;48225;-88
2021/09/28 05:04:18;;;;;;;;;5.67;3.33;;;;;14.43;64.53;101977.84;6253738;22;44709;-88
2021/09/28 05:06:44;;;;;;;;;3.33;2.00;;;;;14.42;64.89;101961.97;6249587;22;45466;-88
2021/09/28 05:09:09;;;;;;;;;3.00;3.00;;;;;14.52;64.69;101981.56;6246049;22;45237;-87
2021/09/28 05:11:35;;;;;;;;;5.00;3.33;;;;;14.42;64.81;101962.88;6219580;22;48146;-89
2021/09/28 05:14:00;;;;;;;;;3.00;3.00;;;;;14.43;64.68;101971.66;6220030;22;45291;-88
2021/09/28 05:16:26;;;;;;;;;3.00;2.33;;;;;14.50;65.05;101984.19;6219665;22;45244;-88
2021/09/28 05:18:52;;;;;;;;;3.33;2.00;;;;;14.54;64.66;101995.72;6219864;22;45384;-88
2021/09/28 05:21:17;;;;;;;;;5.00;3.00;;;;;14.41;64.72;101962.81;6218378;22;46753;-87
2021/09/28 05:23:46;;;;;;;;;4.67;3.67;;;;;14.43;65.14;101972.56;6246773;22;45267;-89
2021/09/28 05:26:15;;;;;;;;;2.00;2.00;;;;;14.57;64.99;101995.78;6246160;22;45135;-88
2021/09/28 05:28:41;;;;;;;;;3.33;2.33;;;;;14.52;64.67;101992.16;6218964;22;45443;-88
2021/09/28 05:31:06;;;;;;;;;5.33;2.67;;;;;14.46;65.19;101983.22;6245600;22;46201;-89
2021/09/28 05:33:32;;;;;;;;;4.00;2.33;;;;;14.55;64.68;101995.75;6244392;22;45288;-90
2021/09/28 05:35:57;;;;;;;;;3.33;2.33;;;;;14.56;64.63;101996.63;6246408;22;45300;-89
2021/09/28 05:38:24;;;;;;;;;4.00;3.00;;;;;14.43;64.64;101969.91;6219366;22;45301;-89
2021/09/28 05:40:49;;;;;;;;;4.00;2.00;;;;;14.45;65.03;101959.38;6246187;22;45323;-88
2021/09/28 05:43:15;;;;;;;;;3.00;3.00;;;;;14.58;64.38;101965.81;6218887;22;45211;-89
2021/09/28 05:45:40;;;;;;;;;4.00;2.00;;;;;14.50;64.30;101952.44;6219343;22;45202;-89
2021/09/28 05:48:05;;;;;;;;;3.67;3.33;;;;;14.50;64.56;101948.88;6246015;22;45304;-81
2021/09/28 05:50:31;;;;;;;;;2.00;2.00;;;;;14.58;65.19;101960.50;6244395;22;45107;-82
2021/09/28 05:52:57;;;;;;;;;4.00;2.67;;;;;14.53;65.12;101939.25;6244293;22;45154;-81
2021/09/28 05:55:24;;;;;;;;;1.67;1.00;;;;;14.59;64.83;101951.72;6244777;22;45328;-81
2021/09/28 05:57:50;;;;;;;;;6.00;3.00;;;;;14.57;64.84;101949.03;6218198;22;45252;-81
2021/09/28 06:00:15;;;;;;;;;2.33;2.33;;;;;14.64;64.77;101955.34;6244372;22;46084;-82
2021/09/28 06:02:42;;;;;;;;;3.00;3.00;;;;;14.66;65.27;101955.38;6245109;22;45530;-85
2021/09/28 06:05:08;;;;;;;;;3.33;2.00;;;;;14.67;64.67;101966.00;6244889;22;45272;-83
2021/09/28 06:07:35;;;;;;;;;6.00;2.00;;;;;14.69;64.69;101971.31;6244811;22;45355;-82
2021/09/28 06:10:00;;;;;;;;;2.67;2.67;;;;;14.70;65.25;101963.41;6244586;22;45264;-82
2021/09/28 06:12:25;;;;;;;;;3.67;2.00;;;;;14.72;64.46;101968.75;6244738;22;45144;-82
2021/09/28 06:14:51;;;;;;;;;2.67;2.33;;;;;14.76;64.27;101967.06;6245416;22;45543;-82
2021/09/28 06:17:16;;;;;;;;;6.00;3.00;;;;;14.76;64.23;101972.34;6245077;22;45268;-86
2021/09/28 06:19:42;;;;;;;;;4.33;3.00;;;;;14.77;64.62;101972.38;6245701;22;46241;-81
2021/09/28 06:22:08;;;;;;;;;4.00;2.00;;;;;14.80;64.89;101968.91;6246623;22;45249;-83
2021/09/28 06:24:34;;;;;;;;;5.00;3.00;;;;;14.78;65.00;101967.97;6246178;22;45102;-82
2021/09/28 06:27:04;;;;;;;;;7.67;4.00;;;;;14.80;64.87;101966.25;6247277;22;45299;-82
2021/09/28 06:29:30;;;;;;;;;3.67;3.00;;;;;14.79;64.99;101967.09;6244705;22;46482;-83
2021/09/28 06:31:56;;;;;;;;;4.67;3.00;;;;;14.86;65.18;101977.00;6246085;22;45173;-82
2021/09/28 06:34:22;;;;;;;;;7.00;4.33;;;;;14.89;64.74;101979.69;6245731;22;45090;-82
2021/09/28 06:36:47;;;;;;;;;4.00;4.00;;;;;14.88;64.86;101975.28;6245936;22;45106;-81
2021/09/28 06:39:12;;;;;;;;;6.00;4.00;;;;;14.92;64.94;101978.88;6246131;22;45379;-82
2021/09/28 06:41:38;;;;;;;;;6.67;4.67;;;;;14.93;64.93;101978.00;6249206;22;45162;-88
2021/09/28 06:44:05;;;;;;;;;6.00;4.00;;;;;14.88;64.46;101962.03;6221153;22;45317;-89
2021/09/28 06:46:32;;;;;;;;;6.00;3.67;;;;;14.98;64.35;101978.06;6225244;22;45454;-87
2021/09/28 06:48:58;;;;;;;;;5.33;4.00;;;;;14.94;64.82;101966.53;6188824;22;46772;-88
2021/09/28 06:51:23;;;;;;;;;4.67;3.33;;;;;14.99;64.54;101966.63;6216401;22;45488;-89
2021/09/28 06:53:49;;;;;;;;;5.67;4.00;;;;;15.00;64.75;101971.06;6216769;22;45237;-89
2021/09/28 06:56:16;;;;;;;;;4.33;3.00;;;;;14.96;64.49;101950.69;6217213;22;45182;-89
2021/09/28 06:58:45;;;;;;;;;4.33;2.67;;;;;15.07;64.89;101966.78;6217791;22;45256;-88
2021/09/28 07:01:11;;;;;;;;;5.00;4.00;;;;;15.04;64.55;101964.94;6170391;22;45283;-87
2021/09/28 07:03:36;;;;;;;;;4.00;4.00;;;;;14.98;64.66;101948.94;6219425;22;45343;-87
2021/09/28 07:06:02;;;;;;;;;5.00;3.00;;;;;14.98;63.97;101956.91;6221693;22;45292;-87
2021/09/28 07:08:27;;;;;;;;;4.33;3.33;;;;;15.00;64.12;101960.47;6225864;22;45307;-87
2021/09/28 07:10:53;;;;;;;;;6.00;5.00;;;;;15.00;64.27;101957.81;6226335;22;45327;-86
2021/09/28 07:13:18;;;;;;;;;3.00;3.00;;;;;15.05;63.93;101956.16;6227564;22;45226;-86
2021/09/28 07:15:44;;;;;;;;;3.33;2.00;;;;;15.03;63.31;101955.25;6228983;22;45213;-87
2021/09/28 07:18:11;;;;;;;;;3.00;3.00;;;;;15.10;63.93;101969.50;6229270;22;45976;-86
2021/09/28 07:20:37;;;;;;;;;5.33;4.67;;;;;15.10;63.72;101966.84;6229458;22;45316;-88
2021/09/28 07:23:03;;;;;;;;;8.00;6.67;;;;;15.11;63.82;101965.97;6226730;22;44674;-88
2021/09/28 07:25:29;;;;;;;;;6.33;4.00;;;;;15.12;63.91;101968.63;6196740;22;45383;-89
2021/09/28 07:27:58;;;;;;;;;7.33;6.00;;;;;15.14;64.45;101966.91;6217597;22;45161;-87
2021/09/28 07:30:24;;;;;;;;;6.33;5.00;;;;;15.19;64.04;101964.34;6218394;22;45197;-88
2021/09/28 07:32:50;;;;;;;;;4.00;4.00;;;;;15.19;63.95;101959.06;6217831;22;45127;-88
2021/09/28 07:35:15;;;;;;;;;5.00;5.00;;;;;15.24;63.45;101962.69;6217915;22;45322;-87
2021/09/28 07:37:41;;;;;;;;;7.33;4.67;;;;;15.26;63.07;101960.97;6217903;22;45740;-89
2021/09/28 07:40:06;;;;;;;;;6.67;3.67;;;;;15.19;63.91;101950.22;6217074;22;45169;-88
2021/09/28 07:42:32;;;;;;;;;8.00;5.00;;;;;15.27;63.68;101961.84;6218931;22;45351;-88
2021/09/28 07:44:58;;;;;;;;;6.00;3.00;;;;;15.29;62.89;101960.13;6218847;22;45125;-89
2021/09/28 07:47:25;;;;;;;;;5.33;5.33;;;;;15.28;63.28;101958.31;6218023;22;45194;-88
2021/09/28 07:49:51;;;;;;;;;9.00;6.00;;;;;15.27;63.29;101956.56;6217918;22;45175;-88
2021/09/28 07:52:16;;;;;;;;;5.33;5.33;;;;;15.36;63.38;101958.44;6218141;22;45387;-90
2021/09/28 07:54:42;;;;;;;;;7.00;5.67;;;;;15.31;63.60;101950.44;6218060;22;44679;-88
2021/09/28 07:57:08;;;;;;;;;9.00;5.00;;;;;15.42;63.02;101966.50;6217835;22;45323;-88
2021/09/28 07:59:35;;;;;;;;;7.33;6.00;;;;;15.36;63.37;101939.91;6218857;22;45265;-88
2021/09/28 08:02:00;;;;;;;;;10.00;7.00;;;;;15.46;63.69;101948.91;6168180;22;44667;-87
2021/09/28 08:04:25;;;;;;;;;6.67;6.00;;;;;15.57;63.49;101965.88;6232959;22;44619;-87
2021/09/28 08:06:52;;;;;;;;;11.00;7.67;;;;;15.58;63.16;101954.41;6236776;22;46083;-88
2021/09/28 08:09:18;;;;;;;;;7.00;7.00;;;;;15.69;63.80;101965.19;6221697;22;45114;-88
2021/09/28 08:11:44;;;;;;;;;6.33;6.33;;;;;15.74;63.33;101959.94;6217439;22;45149;-88
2021/09/28 08:14:10;;;;;;;;;7.33;6.67;;;;;15.71;62.87;101946.66;6217066;22;45242;-90
2021/09/28 08:16:35;;;;;;;;;9.33;7.00;;;;;15.83;62.43;101961.84;6189464;22;47238;-87
2021/09/28 08:19:03;;;;;;;;;7.33;7.33;;;;;15.85;63.48;101962.78;6217908;22;45288;-87
2021/09/28 08:21:28;;;;;;;;;10.00;6.67;;;;;15.83;63.24;101951.25;6218501;22;45227;-89
2021/09/28 08:23:53;;;;;;;;;7.33;7.33;;;;;16.01;63.21;101979.78;6220391;22;45201;-89
2021/09/28 08:29:09;;;;;;;;;9.33;6.00;;;;;16.12;62.75;101972.03;6222819;22;45269;-89
2021/09/28 08:31:37;;;;;;;;;8.67;6.67;;;;;16.15;62.82;101966.78;6216831;22;45305;-88
2021/09/28 08:34:03;;;;;;;;;11.00;7.00;;;;;16.25;61.97;101974.84;6189756;22;45297;-87
2021/09/28 08:36:30;;;;;;;;;8.00;7.00;;;;;16.24;62.64;101951.84;6188542;22;48169;-87
2021/09/28 08:38:56;;;;;;;;;8.00;6.00;;;;;16.34;61.42;101961.72;6215809;22;45380;-89
2021/09/28 08:41:21;;;;;;;;;9.67;6.00;;;;;16.40;61.91;101968.88;6214883;22;45375;-89
2021/09/28 08:43:48;;;;;;;;;6.00;5.33;;;;;16.49;61.99;101971.66;6214715;22;45853;-89
2021/09/28 08:46:18;;;;;;;;;3.33;3.00;;;;;16.57;61.70;101976.16;6216225;22;46098;-87
2021/09/28 08:48:46;;;;;;;;;10.33;7.00;;;;;16.63;61.42;101970.91;6215877;22;45328;-88
2021/09/28 08:51:12;;;;;;;;;6.67;4.33;;;;;16.66;61.22;101970.97;6216466;22;45225;-87
2021/09/28 08:53:38;;;;;;;;;7.00;6.00;;;;;16.62;61.47;101950.56;6216883;22;45312;-89
2021/09/28 08:56:05;;;;;;;;;6.67;4.67;;;;;16.68;61.57;101955.94;6216218;22;45179;-87
2021/09/28 08:58:32;;;;;;;;;8.00;6.00;;;;;16.86;61.83;101970.28;6216696;22;45383;-89
2021/09/28 09:01:05;;;;;;;;;12.67;9.00;;;;;16.91;61.83;101971.22;6215081;22;45378;-87
2021/09/28 09:03:33;;;;;;;;;9.67;8.00;;;;;16.96;61.70;101964.22;6218517;22;45339;-88
2021/09/28 09:06:02;;;;;;;;;7.67;6.00;;;;;17.10;61.59;101976.75;6225212;22;45256;-87
2021/09/28 09:08:29;;;;;;;;;14.00;9.00;;;;;17.12;61.06;101967.91;6203754;22;45151;-86
2021/09/28 09:11:06;;;;;;;;;13.33;9.00;;;;;17.17;61.57;101957.38;6199348;22;45228;-87
2021/09/28 09:13:42;;;;;;;;;7.00;7.00;;;;;17.32;60.72;101966.38;6189289;22;45238;-87
2021/09/28 09:16:10;;;;;;;;;7.33;7.00;;;;;17.42;59.91;101962.91;6215829;22;45240;-88
2021/09/28 09:18:36;;;;;;;;;9.00;8.00;;;;;17.52;60.63;101955.88;6188843;22;45758;-88
2021/09/28 09:21:05;;;;;;;;;7.67;7.67;;;;;17.61;60.86;101943.53;6217524;22;45209;-85
2021/09/28 09:23:37;;;;;;;;;6.33;6.33;;;;;17.88;60.63;101961.47;6217760;22;45266;-88
2021/09/28 09:26:17;;;;;;;;;6.00;5.00;;;;;18.05;60.42;101953.59;6217279;22;45971;-86
2021/09/28 09:28:54;;;;;;;;;6.00;4.00;;;;;18.20;60.06;101953.69;6190680;22;45602;-88
2021/09/28 09:31:22;;;;;;;;;7.67;5.00;;;;;18.31;60.08;101949.31;6216360;22;45261;-87
2021/09/28 09:33:51;;;;;;;;;8.00;7.00;;;;;18.34;59.52;101921.84;6218500;22;45139;-87
2021/09/28 09:36:19;;;;;;;;;8.00;5.33;;;;;18.50;58.87;101930.75;6219899;22;46362;-88
2021/09/28 09:38:53;;;;;;;;;5.33;5.33;;;;;18.66;58.79;101945.00;6219316;22;45365;-88
2021/09/28 09:41:25;;;;;;;;;7.67;5.00;;;;;18.78;57.07;101932.59;6224484;22;45365;-89
2021/09/28 09:44:20;;;;;;;;;5.00;5.00;;;;;19.00;57.72;101930.84;6221715;22;45352;-87
2021/09/28 09:46:47;;;;;;;;;9.33;7.00;;;;;19.26;57.65;101916.69;6193507;22;45625;-87
2021/09/28 09:49:21;;;;;;;;;7.00;4.00;;;;;19.68;57.08;101926.44;6189510;22;45281;-88
2021/09/28 09:51:52;;;;;;;;;7.33;4.00;;;;;20.06;56.48;101911.22;6190705;22;45353;-88
2021/09/28 09:54:29;;;;;;;;;3.00;2.67;;;;;20.47;56.03;101909.28;6217181;22;45162;-87
2021/09/28 09:56:56;;;;;;;;;1.67;1.67;;;;;20.86;54.18;101907.25;6216176;22;48031;-87
2021/09/28 09:59:23;;;;;;;;;1.00;1.00;;;;;21.14;52.62;101897.28;6218214;22;45252;-87
2021/09/28 10:01:50;;;;;;;;;2.00;2.00;;;;;21.24;52.47;101897.19;6218753;22;45370;-88
2021/09/28 10:04:18;;;;;;;;;1.00;1.00;;;;;21.29;52.17;101890.94;6218844;22;45206;-86
2021/09/28 10:06:45;;;;;;;;;2.00;2.00;;;;;21.33;51.62;101905.16;6218436;22;47861;-90
2021/09/28 10:09:18;;;;;;;;;3.67;3.00;;;;;21.26;51.87;101898.97;6207241;22;44745;-87
2021/09/28 10:11:44;;;;;;;;;3.33;1.00;;;;;21.21;51.46;101897.25;6237370;22;45151;-87
2021/09/28 10:14:37;;;;;;;;;5.00;1.33;;;;;21.19;52.35;101896.38;6236136;22;45265;-87
2021/09/28 10:17:26;;;;;;;;;5.67;3.00;;;;;21.38;51.97;101903.31;6225617;22;45363;-88
2021/09/28 10:19:53;;;;;;;;;2.67;2.33;;;;;21.55;51.81;101890.69;6237339;22;45245;-86
2021/09/28 10:22:48;;;;;;;;;1.00;1.00;;;;;21.91;51.54;101901.03;6242276;22;44715;-88
2021/09/28 10:27:47;;;;;;;;;2.00;2.00;;;;;22.51;50.02;101909.19;6241248;22;45228;-87
2021/09/28 10:30:33;;;;;;;;;2.00;2.00;;;;;22.52;49.63;101903.81;6214289;22;45350;-88
2021/09/28 10:33:24;;;;;;;;;4.00;2.00;;;;;22.61;49.36;101905.47;6207297;22;44752;-87
2021/09/28 10:36:23;;;;;;;;;2.00;1.00;;;;;22.50;48.75;101900.28;6240832;22;45131;-88
2021/09/28 10:39:02;;;;;;;;;3.00;1.67;;;;;22.25;48.87;101889.88;6240043;22;45210;-88
2021/09/28 10:41:45;;;;;;;;;3.67;2.00;;;;;22.28;48.25;101908.59;6239919;22;44598;-90
2021/09/28 10:44:40;;;;;;;;;0.67;0.00;;;;;22.22;48.32;101914.03;6240070;22;45108;-88
2021/09/28 10:47:06;;;;;;;;;0.67;0.67;;;;;22.08;48.30;101912.41;6214760;22;45183;-85
2021/09/28 10:49:34;;;;;;;;;2.00;1.00;;;;;21.92;48.50;101902.78;6214612;22;46149;-87
2021/09/28 10:52:21;;;;;;;;;2.33;0.33;;;;;21.96;48.57;101912.56;6201956;22;45287;-86
2021/09/28 10:55:05;;;;;;;;;3.00;1.00;;;;;22.02;48.46;101912.47;6221102;22;45197;-89
2021/09/28 10:57:58;;;;;;;;;0.33;0.33;;;;;21.98;47.78;101897.34;6198530;22;45211;-87
2021/09/28 11:00:30;;;;;;;;;4.33;0.33;;;;;21.98;47.94;101900.03;6222847;22;45182;-87
2021/09/28 11:03:00;;;;;;;;;1.00;1.00;;;;;21.95;47.72;101895.63;6192747;22;45202;-88
2021/09/28 11:05:32;;;;;;;;;2.33;0.33;;;;;21.95;47.71;101894.75;6192338;22;45367;-88
2021/09/28 11:07:59;;;;;;;;;3.67;1.00;;;;;21.93;47.50;101881.38;6219534;22;45310;-87
2021/09/28 11:10:25;;;;;;;;;1.00;1.00;;;;;22.01;47.96;101891.09;6216995;22;47024;-88
2021/09/28 11:12:51;;;;;;;;;2.00;1.00;;;;;22.02;47.44;101876.81;6220098;22;45345;-87
2021/09/28 11:15:21;;;;;;;;;1.00;1.00;;;;;22.14;47.68;101881.13;6194557;22;45439;-87
2021/09/28 11:17:46;;;;;;;;;1.00;1.00;;;;;22.16;46.28;101876.63;6196699;22;45199;-88
2021/09/28 11:20:32;;;;;;;;;1.67;1.00;;;;;22.33;46.65;101879.97;6193892;22;47342;-87
2021/09/28 11:23:00;;;;;;;;;1.00;1.00;;;;;22.41;46.30;101861.09;6218782;22;45285;-87
2021/09/28 11:25:27;;;;;;;;;0.00;0.00;;;;;22.56;45.19;101876.06;6220615;22;45296;-88
2021/09/28 11:28:08;;;;;;;;;0.33;0.00;;;;;22.69;44.70;101869.66;6220203;22;45250;-88
2021/09/28 11:30:36;;;;;;;;;0.00;0.00;;;;;22.81;44.97;101863.22;6217813;22;47213;-87